• Join FlightAware (Why Join?)
  • Login
  • US Flag 
11:39AM EDT


 

Airport Tracker/Info


-or-


 

Live Flight TrackerFlight Track Log ✈ N20389 ✈ 18-Aug-2014 ✈ 6B9 - NY0

Flight Track Log - Related Links

Times and Time Zones

All times are in EDT time to prevent confusion due to time zone crossing. See the N20389 flight status page for this flight to view local times or setup timezone preferences in your user account.

Time Position Orientation Groundspeed Altitude Reporting Facility
EDT Latitude Longitude Course Direction KTS MPH feet Rate Location/Type
06:22PM 42.9072 -76.4283 82° East 114 131 3,700  Level Boston Center
06:23PM 42.9100 -76.4000 82° East 120 138 3,700  Level Boston Center
06:24PM 42.9183 -76.3583 75° East 114 131 3,700  Level Boston Center
06:25PM 42.9211 -76.3103 85° East 121 139 3,800  Climbing Boston Center
06:26PM 42.9228 -76.2642 87° East 121 139 3,700 -60 Descending Boston Center
06:27PM 42.9231 -76.2119 90° East 124 143 3,700  Level Boston Center
06:28PM 42.9189 -76.1611 96° East 120 138 3,700  Level Boston Center
06:29PM 42.9194 -76.1206 89° East 123 142 3,700  Level Boston Center
06:30PM 42.9208 -76.0744 88° East 122 140 3,800  Climbing Boston Center
06:31PM 42.9247 -76.0264 84° East 124 143 3,700 -120 Descending Boston Center
06:32PM 42.9261 -75.9800 88° East 128 147 3,600 -60 Descending Boston Center
06:33PM 42.9283 -75.9286 87° East 126 145 3,600 -60 Level Boston Center
06:34PM 42.9322 -75.8803 84° East 125 144 3,500 -60 Descending Boston Center
06:35PM 42.9333 -75.8342 88° East 122 140 3,500  Level Boston Center
06:36PM 42.9386 -75.7892 81° East 124 143 3,600 60 Climbing Boston Center
06:37PM 42.9381 -75.7425 91° East 120 138 3,700  Climbing Boston Center
06:38PM 42.9372 -75.6956 91° East 122 140 3,700  Level Boston Center
06:39PM 42.9383 -75.6494 88° East 127 146 3,700  Level Boston Center
06:40PM 42.9425 -75.5986 84° East 125 144 3,800  Climbing Boston Center
06:41PM 42.9450 -75.5586 85° East 123 142 3,700 -180 Descending Boston Center
06:42PM 42.9494 -75.5047 84° East 127 146 3,500 -120 Descending Boston Center
06:43PM 42.9506 -75.4586 88° East 124 143 3,500  Level Boston Center
06:44PM 42.9539 -75.4131 84° East 117 135 3,600  Climbing Boston Center
06:45PM 42.9569 -75.3675 85° East 119 137 3,600 -60 Level Boston Center
06:46PM 42.9600 -75.3219 85° East 120 138 3,500  Descending Boston Center
06:47PM 42.9617 -75.2731 87° East 119 137 3,600  Climbing Boston Center
06:48PM 42.9664 -75.2308 81° East 117 135 3,600  Level Boston Center
06:49PM 42.9689 -75.1881 85° East 119 137 3,600  Level Boston Center
06:50PM 42.9700 -75.1419 88° East 121 139 3,600  Level Boston Center
06:51PM 42.9706 -75.0983 89° East 120 138 3,700 60 Climbing Boston Center